Time;durP1;ratioP1;P1;durP2;ratioP2;P2;SDS_P1;SDS_P2;PMS_P1;PMS_P2;Temp;Humidity;BMP_temperature;BMP_pressure;BME280_temperature;BME280_humidity;BME280_pressure;Samples;Min_cycle;Max_cycle;Signal;HPM_P1;HPM_P2
2022/02/23 00:00:02;;;;;;;31.63;4.77;;;6.40;99.90;;;;;;5026852;28;20236;-63
2022/02/23 00:02:31;;;;;;;27.20;4.40;;;6.50;99.90;;;;;;5032649;28;20232;-63
2022/02/23 00:04:59;;;;;;;28.03;4.10;;;6.50;99.90;;;;;;5032041;28;20236;-63
2022/02/23 00:07:28;;;;;;;26.70;4.60;;;6.50;99.90;;;;;;5032510;28;20505;-63
2022/02/23 00:09:56;;;;;;;25.70;4.23;;;6.50;99.90;;;;;;5032649;28;20237;-63
2022/02/23 00:12:24;;;;;;;26.57;4.53;;;6.50;99.90;;;;;;5032733;28;20236;-63
2022/02/23 00:14:52;;;;;;;31.23;4.53;;;6.50;99.90;;;;;;5031407;28;20232;-63
2022/02/23 00:17:25;;;;;;;30.13;4.73;;;6.50;99.90;;;;;;5044234;28;20270;-63
2022/02/23 00:19:53;;;;;;;28.60;5.67;;;6.50;99.90;;;;;;5038681;28;20232;-63
2022/02/23 00:22:21;;;;;;;26.60;4.43;;;6.50;99.90;;;;;;5032834;28;20244;-63
2022/02/23 00:24:49;;;;;;;24.57;3.97;;;6.50;99.90;;;;;;5036723;28;20630;-63
2022/02/23 00:27:18;;;;;;;27.70;4.87;;;6.50;99.90;;;;;;5039757;28;20238;-63
2022/02/23 00:29:47;;;;;;;26.23;4.17;;;6.50;99.90;;;;;;5051981;28;21239;-63
2022/02/23 00:32:15;;;;;;;26.40;5.03;;;6.50;99.90;;;;;;5040442;28;20240;-63
2022/02/23 00:34:45;;;;;;;30.63;5.10;;;6.50;99.90;;;;;;5031412;28;20232;-63
2022/02/23 00:37:13;;;;;;;23.93;3.80;;;6.50;99.90;;;;;;5032062;28;20244;-63
2022/02/23 00:39:42;;;;;;;29.20;5.20;;;6.50;99.90;;;;;;5032027;28;20259;-63
2022/02/23 00:42:10;;;;;;;22.70;4.23;;;6.50;99.90;;;;;;5032692;28;20248;-63
2022/02/23 00:44:38;;;;;;;23.03;4.27;;;6.50;99.90;;;;;;5029495;28;20633;-63
2022/02/23 00:47:06;;;;;;;21.37;4.77;;;6.50;99.90;;;;;;5043343;28;20722;-63
2022/02/23 00:49:34;;;;;;;25.27;3.77;;;6.50;99.90;;;;;;5051778;28;20612;-63
2022/02/23 00:52:06;;;;;;;21.87;3.87;;;6.60;99.90;;;;;;5041745;28;20740;-63
2022/02/23 00:54:35;;;;;;;25.50;3.90;;;6.60;99.90;;;;;;5034081;28;20248;-63
2022/02/23 00:57:04;;;;;;;19.97;4.00;;;6.60;99.90;;;;;;5043082;28;20696;-63
2022/02/23 00:59:32;;;;;;;27.70;4.60;;;6.60;99.90;;;;;;5050468;28;20293;-63
2022/02/23 01:02:01;;;;;;;21.33;3.90;;;6.60;99.90;;;;;;5036232;28;20701;-63
2022/02/23 01:04:29;;;;;;;21.90;4.37;;;6.60;99.90;;;;;;5030525;28;20243;-63
2022/02/23 01:06:57;;;;;;;26.60;4.40;;;6.60;99.90;;;;;;5031448;28;20271;-63
2022/02/23 01:09:27;;;;;;;25.63;4.50;;;6.60;99.90;;;;;;5031362;28;20631;-63
2022/02/23 01:11:57;;;;;;;25.40;4.73;;;6.60;99.90;;;;;;5031277;28;20239;-63
2022/02/23 01:14:25;;;;;;;23.50;3.83;;;6.60;99.90;;;;;;5027814;28;20240;-63
2022/02/23 01:16:53;;;;;;;31.50;5.07;;;6.60;99.90;;;;;;5042769;28;20320;-63
2022/02/23 01:19:22;;;;;;;22.27;3.93;;;6.60;99.90;;;;;;5051449;28;20242;-63
2022/02/23 01:21:50;;;;;;;27.20;4.87;;;6.60;99.90;;;;;;5037311;28;20321;-63
2022/02/23 01:24:18;;;;;;;28.77;4.07;;;6.60;99.90;;;;;;5030547;28;20327;-63
2022/02/23 01:26:48;;;;;;;21.67;4.00;;;6.60;99.90;;;;;;5030889;28;20252;-63
2022/02/23 01:29:16;;;;;;;24.57;4.40;;;6.60;99.90;;;;;;5031256;28;20231;-63
2022/02/23 01:31:44;;;;;;;32.10;4.87;;;6.60;99.90;;;;;;5030705;28;20315;-63
2022/02/23 01:34:15;;;;;;;18.10;4.23;;;6.60;99.90;;;;;;5026870;28;20241;-63
2022/02/23 01:36:43;;;;;;;21.37;5.03;;;6.70;99.90;;;;;;5042224;28;20239;-63
2022/02/23 01:39:11;;;;;;;23.43;3.90;;;6.60;99.90;;;;;;5051034;28;20300;-63
2022/02/23 01:41:39;;;;;;;20.67;4.17;;;6.60;99.90;;;;;;5038211;28;20323;-63
2022/02/23 01:44:09;;;;;;;24.40;4.27;;;6.50;99.90;;;;;;5030306;28;20236;-64
2022/02/23 01:46:37;;;;;;;22.73;3.67;;;6.50;99.90;;;;;;5030469;28;20243;-63
2022/02/23 01:49:07;;;;;;;27.33;3.77;;;6.50;99.90;;;;;;5030766;28;20612;-63
2022/02/23 01:51:36;;;;;;;21.83;4.40;;;6.40;99.90;;;;;;5030408;28;20237;-63
2022/02/23 01:54:04;;;;;;;24.97;4.47;;;6.40;99.90;;;;;;5027777;28;20245;-63
2022/02/23 01:56:32;;;;;;;28.47;3.93;;;6.30;99.90;;;;;;5038311;28;20243;-63
2022/02/23 01:59:00;;;;;;;26.50;3.93;;;6.30;99.90;;;;;;5050324;28;20251;-63
2022/02/23 02:01:30;;;;;;;23.83;5.07;;;6.30;99.90;;;;;;5039440;28;20601;-63
2022/02/23 02:03:58;;;;;;;28.10;3.87;;;6.30;99.90;;;;;;5029706;28;20248;-63
2022/02/23 02:06:26;;;;;;;28.07;4.70;;;6.30;99.90;;;;;;5030274;28;20323;-63
2022/02/23 02:08:54;;;;;;;33.17;4.90;;;6.30;99.90;;;;;;5030632;28;20232;-63
2022/02/23 02:11:22;;;;;;;27.20;4.73;;;6.30;99.90;;;;;;5032080;28;20232;-63
2022/02/23 02:13:50;;;;;;;25.73;4.50;;;6.40;99.90;;;;;;5035573;28;20275;-63
2022/02/23 02:16:18;;;;;;;22.10;3.77;;;6.40;99.90;;;;;;5042616;28;20509;-63
2022/02/23 02:18:48;;;;;;;24.57;4.43;;;6.40;99.90;;;;;;5037063;28;20235;-63
2022/02/23 02:21:16;;;;;;;22.70;4.53;;;6.40;99.90;;;;;;5039466;28;20250;-63
2022/02/23 02:23:45;;;;;;;25.33;4.73;;;6.40;99.90;;;;;;5036658;28;20232;-63
2022/02/23 02:26:16;;;;;;;19.47;3.97;;;6.50;99.90;;;;;;5036846;28;20232;-63
2022/02/23 02:28:44;;;;;;;23.43;3.70;;;6.50;99.90;;;;;;5036775;28;20256;-63
2022/02/23 02:31:12;;;;;;;21.90;3.90;;;6.50;99.90;;;;;;5035439;28;20302;-63
2022/02/23 02:33:40;;;;;;;30.03;4.83;;;6.50;99.90;;;;;;5036714;28;20597;-63
2022/02/23 02:36:08;;;;;;;17.97;3.47;;;6.50;99.90;;;;;;5036797;28;20282;-63
2022/02/23 02:38:37;;;;;;;25.00;4.40;;;6.50;99.90;;;;;;5036958;28;20238;-63
2022/02/23 02:41:06;;;;;;;23.47;4.30;;;6.50;99.90;;;;;;5035507;28;20237;-63
2022/02/23 02:43:34;;;;;;;26.47;4.23;;;6.50;99.90;;;;;;5047622;28;20235;-63
2022/02/23 02:46:02;;;;;;;16.13;3.93;;;6.50;99.90;;;;;;5055253;28;20677;-63
2022/02/23 02:48:30;;;;;;;25.20;3.77;;;6.50;99.90;;;;;;5036524;28;20246;-63
2022/02/23 02:50:58;;;;;;;23.57;4.00;;;6.50;99.90;;;;;;5036158;28;20755;-63
2022/02/23 02:53:26;;;;;;;27.37;4.50;;;6.50;99.90;;;;;;5036544;28;20232;-63
2022/02/23 02:55:55;;;;;;;25.23;4.13;;;6.50;99.90;;;;;;5036546;28;20236;-63
2022/02/23 02:58:26;;;;;;;24.83;4.50;;;6.50;99.90;;;;;;5036666;28;20606;-63
2022/02/23 03:00:54;;;;;;;24.17;4.93;;;6.50;99.90;;;;;;5037474;28;20235;-64
2022/02/23 03:03:22;;;;;;;20.80;3.57;;;6.50;99.90;;;;;;5041228;28;20240;-63
2022/02/23 03:05:51;;;;;;;24.63;3.83;;;6.50;99.90;;;;;;5057063;28;20239;-63
2022/02/23 03:08:19;;;;;;;26.73;4.67;;;6.50;99.90;;;;;;5017022;28;20260;-63
2022/02/23 03:10:47;;;;;;;25.67;4.37;;;6.50;99.90;;;;;;5016903;28;20315;-63
2022/02/23 03:13:15;;;;;;;25.10;4.07;;;6.50;99.90;;;;;;5035858;28;20232;-63
2022/02/23 03:15:46;;;;;;;22.53;4.20;;;6.50;99.90;;;;;;5036490;28;20251;-63
2022/02/23 03:18:14;;;;;;;21.40;3.90;;;6.50;99.90;;;;;;5036541;28;20260;-63
2022/02/23 03:20:42;;;;;;;22.23;3.47;;;6.50;99.90;;;;;;5037223;28;20330;-63
2022/02/23 03:23:10;;;;;;;24.40;4.20;;;6.50;99.90;;;;;;5040319;28;20247;-63
2022/02/23 03:25:38;;;;;;;22.73;4.40;;;6.50;99.90;;;;;;5013414;28;20427;-63
2022/02/23 03:28:07;;;;;;;25.40;3.43;;;6.50;99.90;;;;;;5032027;28;20717;-63
2022/02/23 03:30:35;;;;;;;19.67;3.97;;;6.50;99.90;;;;;;5033106;28;20233;-63
2022/02/23 03:33:04;;;;;;;22.30;3.60;;;6.50;99.90;;;;;;5032792;28;20229;-63
2022/02/23 03:35:34;;;;;;;20.93;4.00;;;6.50;99.90;;;;;;5033295;28;20282;-63
2022/02/23 03:38:03;;;;;;;26.40;4.00;;;6.50;99.90;;;;;;5033185;28;20286;-63
2022/02/23 03:40:31;;;;;;;22.23;4.33;;;6.50;99.90;;;;;;5033803;28;20837;-63
2022/02/23 03:43:00;;;;;;;19.60;3.70;;;6.50;99.90;;;;;;5031851;28;20646;-63
2022/02/23 03:45:28;;;;;;;19.67;3.60;;;6.50;99.90;;;;;;5041933;28;20260;-63
2022/02/23 03:47:57;;;;;;;24.93;4.70;;;6.50;99.90;;;;;;5035720;28;20263;-63
2022/02/23 03:50:26;;;;;;;20.43;3.77;;;6.60;99.90;;;;;;5033110;28;20595;-63
2022/02/23 03:52:55;;;;;;;17.30;3.87;;;6.60;99.90;;;;;;5032833;28;20740;-63
2022/02/23 03:55:23;;;;;;;21.87;3.97;;;6.50;99.90;;;;;;5032921;28;20232;-63
2022/02/23 03:57:51;;;;;;;21.90;4.50;;;6.50;99.90;;;;;;5032255;28;20713;-63
2022/02/23 04:00:19;;;;;;;20.47;3.87;;;6.50;99.90;;;;;;5032726;28;20232;-63
2022/02/23 04:02:47;;;;;;;25.03;4.93;;;6.50;99.90;;;;;;5030894;28;20239;-63
2022/02/23 04:05:15;;;;;;;20.70;3.93;;;6.50;99.90;;;;;;5032736;28;20244;-63
2022/02/23 04:07:47;;;;;;;22.33;4.03;;;6.50;99.90;;;;;;5032289;28;20263;-63
2022/02/23 04:10:19;;;;;;;19.17;3.87;;;6.50;99.90;;;;;;5032502;28;20259;-63
2022/02/23 04:12:48;;;;;;;25.93;4.70;;;6.50;99.90;;;;;;5030981;28;21029;-63
2022/02/23 04:15:16;;;;;;;26.43;4.60;;;6.50;99.90;;;;;;5044107;28;20762;-63
2022/02/23 04:17:46;;;;;;;25.47;4.07;;;6.50;99.90;;;;;;5036417;28;20236;-63
2022/02/23 04:20:15;;;;;;;24.23;4.53;;;6.50;99.90;;;;;;5032954;28;20596;-63
2022/02/23 04:22:45;;;;;;;22.67;3.90;;;6.50;99.90;;;;;;5032081;28;20247;-63
2022/02/23 04:25:13;;;;;;;25.47;3.97;;;6.50;99.90;;;;;;5032431;28;20586;-63
2022/02/23 04:27:41;;;;;;;24.87;4.30;;;6.50;99.90;;;;;;5031881;28;20236;-63
2022/02/23 04:30:10;;;;;;;25.70;4.83;;;6.50;99.90;;;;;;5039421;28;20242;-63
2022/02/23 04:32:38;;;;;;;20.50;4.33;;;6.40;99.90;;;;;;5038270;28;20682;-63
2022/02/23 04:35:07;;;;;;;20.33;4.23;;;6.50;99.90;;;;;;5052117;28;20239;-63
2022/02/23 04:37:35;;;;;;;24.53;3.70;;;6.50;99.90;;;;;;5037545;28;20248;-63
2022/02/23 04:40:06;;;;;;;23.70;3.53;;;6.50;99.90;;;;;;5032186;28;20232;-63
2022/02/23 04:42:34;;;;;;;18.67;3.70;;;6.50;99.90;;;;;;5031978;28;20225;-63
2022/02/23 04:45:02;;;;;;;21.97;3.50;;;6.40;99.90;;;;;;5031811;28;20228;-63
2022/02/23 04:47:31;;;;;;;20.87;3.47;;;6.40;99.90;;;;;;5031638;28;20301;-63
2022/02/23 04:49:59;;;;;;;25.93;4.97;;;6.40;99.90;;;;;;5036730;28;20239;-63
2022/02/23 04:52:30;;;;;;;18.07;4.57;;;6.40;99.90;;;;;;5032724;28;20712;-63
2022/02/23 04:55:01;;;;;;;23.23;4.40;;;6.40;99.90;;;;;;5031832;28;20263;-63
2022/02/23 04:57:31;;;;;;;18.17;3.10;;;6.40;99.90;;;;;;5031308;28;20234;-63
2022/02/23 04:59:59;;;;;;;17.57;3.57;;;6.40;99.90;;;;;;5031678;28;20240;-63
2022/02/23 05:02:27;;;;;;;19.53;3.57;;;6.40;99.90;;;;;;5031907;28;20290;-63
2022/02/23 05:04:56;;;;;;;23.43;4.07;;;6.30;99.90;;;;;;5031431;28;20271;-63
2022/02/23 05:07:25;;;;;;;23.77;3.70;;;6.30;99.90;;;;;;5031408;28;20315;-61
2022/02/23 05:09:54;;;;;;;20.83;4.17;;;6.40;99.90;;;;;;5028501;28;20656;-61
2022/02/23 05:12:24;;;;;;;25.23;5.53;;;6.40;99.90;;;;;;5042784;28;20266;-61
2022/02/23 05:14:54;;;;;;;24.47;4.17;;;6.40;99.90;;;;;;5031475;28;20248;-61
2022/02/23 05:17:22;;;;;;;19.03;3.10;;;6.40;99.90;;;;;;5031711;28;20318;-61
2022/02/23 05:19:50;;;;;;;20.40;3.70;;;6.40;99.90;;;;;;5031538;28;20240;-61
2022/02/23 05:22:18;;;;;;;21.67;3.57;;;6.40;99.90;;;;;;5031965;28;20747;-61
2022/02/23 05:24:46;;;;;;;25.73;4.57;;;6.40;99.90;;;;;;5031073;28;20259;-61
2022/02/23 05:27:14;;;;;;;27.17;4.03;;;6.40;99.90;;;;;;5031096;28;20240;-61
2022/02/23 05:29:42;;;;;;;22.40;4.03;;;6.40;99.90;;;;;;5032161;28;20899;-61
2022/02/23 05:32:12;;;;;;;20.90;4.57;;;6.40;99.90;;;;;;5042520;28;20246;-61
2022/02/23 05:34:40;;;;;;;26.47;4.17;;;6.40;99.90;;;;;;5050894;28;20235;-61
2022/02/23 05:37:08;;;;;;;26.03;4.67;;;6.40;99.90;;;;;;5040482;28;20709;-61
2022/02/23 05:39:36;;;;;;;23.20;4.50;;;6.40;99.90;;;;;;5030890;28;20228;-61
2022/02/23 05:42:05;;;;;;;21.83;3.67;;;6.40;99.90;;;;;;5031634;28;20706;-61
2022/02/23 05:44:33;;;;;;;20.93;3.67;;;6.40;99.90;;;;;;5021998;28;20271;-61
2022/02/23 05:47:02;;;;;;;28.30;4.60;;;6.40;99.90;;;;;;5020025;28;20746;-61
2022/02/23 05:49:31;;;;;;;21.83;4.23;;;6.30;99.90;;;;;;5030570;28;20315;-61
2022/02/23 05:52:00;;;;;;;19.73;3.70;;;6.30;99.90;;;;;;5041268;28;20289;-61
2022/02/23 05:54:28;;;;;;;20.00;3.83;;;6.30;99.90;;;;;;5031765;28;20479;-61
2022/02/23 05:56:56;;;;;;;21.00;4.37;;;6.20;99.90;;;;;;5030527;28;20323;-61
2022/02/23 05:59:25;;;;;;;25.90;4.37;;;6.20;99.90;;;;;;5022213;28;20275;-61
2022/02/23 06:01:53;;;;;;;22.90;4.67;;;6.20;99.90;;;;;;5026154;28;20779;-61
2022/02/23 06:04:21;;;;;;;27.23;4.20;;;6.10;99.90;;;;;;5031057;28;20328;-61
2022/02/23 06:06:51;;;;;;;21.53;3.83;;;6.10;99.90;;;;;;5030408;28;20713;-61
2022/02/23 06:09:19;;;;;;;28.80;3.83;;;6.10;99.90;;;;;;5030769;28;20232;-61
2022/02/23 06:11:49;;;;;;;23.67;4.20;;;6.10;99.90;;;;;;5029701;28;20248;-61
2022/02/23 06:14:17;;;;;;;27.20;4.93;;;6.10;99.90;;;;;;5046454;28;20232;-61
2022/02/23 06:16:45;;;;;;;26.17;4.07;;;6.00;99.90;;;;;;5044419;28;20259;-61
2022/02/23 06:19:15;;;;;;;32.10;4.37;;;6.10;99.90;;;;;;5034926;28;20233;-62
2022/02/23 06:21:43;;;;;;;22.07;3.70;;;6.00;99.90;;;;;;5042644;28;20314;-61
2022/02/23 06:24:13;;;;;;;18.60;3.67;;;6.00;99.90;;;;;;5030980;28;20731;-61
2022/02/23 06:26:41;;;;;;;26.17;3.40;;;6.00;99.90;;;;;;5031470;28;20239;-61
2022/02/23 06:29:09;;;;;;;16.07;4.13;;;6.00;99.90;;;;;;5034491;28;20233;-61
2022/02/23 06:31:37;;;;;;;25.27;3.27;;;6.00;99.90;;;;;;5033527;28;20312;-61
2022/02/23 06:34:06;;;;;;;21.20;4.30;;;5.90;99.90;;;;;;5041922;28;20232;-61
2022/02/23 06:36:34;;;;;;;19.00;3.60;;;5.90;99.90;;;;;;5047346;28;20571;-62
2022/02/23 06:39:02;;;;;;;23.70;4.00;;;5.90;99.90;;;;;;5042011;28;20317;-61
2022/02/23 06:41:32;;;;;;;16.90;3.73;;;5.90;99.90;;;;;;5045503;28;20302;-61
2022/02/23 06:44:01;;;;;;;21.93;4.47;;;6.00;99.90;;;;;;5047961;28;20255;-61
2022/02/23 06:46:30;;;;;;;23.03;3.77;;;6.00;99.90;;;;;;5033675;28;20256;-61
2022/02/23 06:48:58;;;;;;;18.97;3.90;;;6.00;99.90;;;;;;5039126;28;20713;-61
2022/02/23 06:51:27;;;;;;;20.30;3.40;;;6.00;99.90;;;;;;5041319;28;20501;-61
2022/02/23 06:53:55;;;;;;;21.03;4.33;;;6.00;99.90;;;;;;5042743;28;20477;-61
2022/02/23 06:56:24;;;;;;;18.90;4.40;;;6.00;99.90;;;;;;5042002;28;20244;-61
2022/02/23 06:58:53;;;;;;;23.07;3.50;;;6.00;99.90;;;;;;5044259;28;20228;-61
2022/02/23 07:01:21;;;;;;;17.57;3.13;;;6.00;99.90;;;;;;5044435;28;20260;-61
2022/02/23 07:03:50;;;;;;;17.03;3.50;;;6.10;99.90;;;;;;5048978;28;20231;-61
2022/02/23 07:06:18;;;;;;;25.00;3.67;;;6.10;99.90;;;;;;5043015;28;20244;-61
2022/02/23 07:08:48;;;;;;;17.43;3.60;;;6.10;99.90;;;;;;5048103;28;20240;-62
2022/02/23 07:11:18;;;;;;;20.07;3.13;;;6.10;99.90;;;;;;5040767;28;20712;-61
2022/02/23 07:13:46;;;;;;;22.17;3.67;;;6.10;99.90;;;;;;5045552;28;20559;-61
2022/02/23 07:16:16;;;;;;;19.53;3.70;;;6.10;99.90;;;;;;5048850;28;20727;-61
2022/02/23 07:18:44;;;;;;;18.57;3.70;;;6.10;99.90;;;;;;5047546;28;20771;-61
2022/02/23 07:21:13;;;;;;;19.00;4.20;;;6.10;99.90;;;;;;5036361;28;20239;-61
2022/02/23 07:23:41;;;;;;;27.53;3.97;;;6.10;99.90;;;;;;5035194;28;20240;-63
2022/02/23 07:26:09;;;;;;;22.83;4.60;;;6.10;99.90;;;;;;5032040;28;20243;-63
2022/02/23 07:28:38;;;;;;;17.00;3.03;;;6.10;99.90;;;;;;5032945;28;20925;-63
2022/02/23 07:31:11;;;;;;;20.20;4.10;;;6.10;99.90;;;;;;5032972;28;20252;-63
2022/02/23 07:33:41;;;;;;;17.43;3.70;;;6.10;99.90;;;;;;5033619;28;20290;-63
2022/02/23 07:36:09;;;;;;;22.27;3.97;;;6.20;99.90;;;;;;5038002;28;20747;-63
2022/02/23 07:38:42;;;;;;;20.97;3.63;;;6.20;99.90;;;;;;5040518;28;20713;-63
2022/02/23 07:41:12;;;;;;;27.23;4.07;;;6.20;99.90;;;;;;5032997;28;20486;-63
2022/02/23 07:44:00;;;;;;;22.17;4.10;;;6.20;99.90;;;;;;5043960;28;20243;-63
2022/02/23 07:46:29;;;;;;;22.33;3.63;;;6.30;99.90;;;;;;5036239;28;20286;-63
2022/02/23 07:49:00;;;;;;;23.67;3.50;;;6.30;99.90;;;;;;5043332;28;20602;-63
2022/02/23 07:51:29;;;;;;;18.60;3.67;;;6.30;99.90;;;;;;5049042;28;20239;-63
2022/02/23 07:53:58;;;;;;;22.47;3.77;;;6.30;99.90;;;;;;5044405;28;20708;-63
2022/02/23 07:56:27;;;;;;;12.57;3.07;;;6.40;99.90;;;;;;5045871;28;20236;-63
2022/02/23 07:58:56;;;;;;;19.33;3.53;;;6.40;99.90;;;;;;5042863;28;20501;-63
2022/02/23 08:01:32;;;;;;;18.43;3.63;;;6.40;99.90;;;;;;5048245;28;20263;-63
2022/02/23 08:04:03;;;;;;;18.80;3.40;;;6.50;99.90;;;;;;5044345;28;20694;-63
2022/02/23 08:06:32;;;;;;;22.00;4.13;;;6.60;99.90;;;;;;5036538;28;20379;-63
2022/02/23 08:09:02;;;;;;;19.07;4.03;;;6.70;99.90;;;;;;5043674;28;20236;-64
2022/02/23 08:11:33;;;;;;;21.27;3.50;;;6.70;99.90;;;;;;5041209;28;20239;-63
2022/02/23 08:14:03;;;;;;;14.87;3.43;;;6.80;99.90;;;;;;5044367;28;20699;-63
2022/02/23 08:19:31;;;;;;;25.43;4.03;;;6.80;99.90;;;;;;5044297;28;20246;-63
2022/02/23 08:22:04;;;;;;;24.10;3.93;;;6.80;99.90;;;;;;5039260;28;20236;-63
2022/02/23 08:24:34;;;;;;;23.03;3.57;;;6.90;99.90;;;;;;5041669;28;20319;-63
2022/02/23 08:27:04;;;;;;;24.90;3.83;;;6.90;99.90;;;;;;5029852;28;20635;-63
2022/02/23 08:29:34;;;;;;;21.37;3.87;;;7.00;99.90;;;;;;5044195;28;20698;-63
2022/02/23 08:32:05;;;;;;;18.10;4.00;;;7.20;99.90;;;;;;5043802;28;20619;-63
2022/02/23 08:34:34;;;;;;;22.33;3.90;;;7.30;99.90;;;;;;5038555;28;20331;-63
2022/02/23 08:37:03;;;;;;;21.00;4.00;;;7.50;99.90;;;;;;5036406;28;20699;-63
2022/02/23 08:39:32;;;;;;;22.97;4.07;;;7.50;99.90;;;;;;5043410;28;20243;-63
2022/02/23 08:42:01;;;;;;;27.60;3.90;;;7.60;99.90;;;;;;5041724;28;20264;-63
2022/02/23 08:44:29;;;;;;;18.07;4.80;;;7.60;99.90;;;;;;5032418;28;20251;-63
2022/02/23 08:46:58;;;;;;;17.70;4.10;;;7.50;99.90;;;;;;5037988;28;20244;-64
2022/02/23 08:49:26;;;;;;;22.53;3.97;;;7.60;99.90;;;;;;5043228;28;20591;-63
2022/02/23 08:51:56;;;;;;;19.07;3.60;;;7.70;99.90;;;;;;5048862;28;20285;-63
2022/02/23 08:54:24;;;;;;;18.90;3.67;;;7.90;99.90;;;;;;5043261;28;20240;-63
2022/02/23 08:56:52;;;;;;;21.20;4.27;;;7.90;99.90;;;;;;5048732;28;20297;-63
2022/02/23 08:59:21;;;;;;;17.20;3.40;;;8.10;99.90;;;;;;5043633;28;20236;-63
2022/02/23 09:01:49;;;;;;;19.60;3.57;;;8.10;99.90;;;;;;5048650;28;20236;-63
2022/02/23 09:04:17;;;;;;;19.40;3.80;;;8.30;99.90;;;;;;5043224;28;20288;-63
2022/02/23 09:06:47;;;;;;;17.73;3.40;;;8.50;99.90;;;;;;5038871;28;20738;-63
2022/02/23 09:09:16;;;;;;;18.97;4.13;;;8.50;99.90;;;;;;5034607;28;20286;-63
2022/02/23 09:11:45;;;;;;;20.67;4.37;;;8.70;99.90;;;;;;5031118;28;20232;-63
2022/02/23 09:14:13;;;;;;;19.37;4.03;;;8.80;99.90;;;;;;5031580;28;20259;-63
2022/02/23 09:16:43;;;;;;;20.57;3.53;;;9.00;99.90;;;;;;5035110;28;20326;-63
2022/02/23 09:19:12;;;;;;;21.63;4.17;;;9.20;99.90;;;;;;5042811;28;20235;-63
2022/02/23 09:21:40;;;;;;;17.20;3.57;;;9.40;99.90;;;;;;5046887;28;20236;-63
2022/02/23 09:24:09;;;;;;;17.80;3.67;;;9.30;99.90;;;;;;5042888;28;20277;-64
2022/02/23 09:26:39;;;;;;;16.97;3.40;;;9.40;99.90;;;;;;5035266;28;20267;-63
2022/02/23 09:29:07;;;;;;;15.17;3.70;;;9.50;99.90;;;;;;5042745;28;20293;-63
2022/02/23 09:31:37;;;;;;;19.37;3.47;;;9.50;99.90;;;;;;5042469;28;20242;-63
2022/02/23 09:34:07;;;;;;;16.30;3.53;;;9.70;99.90;;;;;;5039195;28;20239;-63
2022/02/23 09:36:38;;;;;;;19.20;3.57;;;9.70;99.90;;;;;;5047838;28;20232;-63
2022/02/23 09:39:09;;;;;;;14.77;3.97;;;9.90;99.90;;;;;;5042557;28;20232;-63
2022/02/23 09:41:41;;;;;;;17.27;3.30;;;10.00;99.90;;;;;;5047944;28;20235;-63
2022/02/23 09:44:09;;;;;;;13.30;3.00;;;10.10;99.90;;;;;;5042695;28;20285;-63
2022/02/23 09:46:38;;;;;;;16.30;3.47;;;10.00;99.90;;;;;;5034954;28;20232;-63
2022/02/23 09:49:07;;;;;;;15.40;3.20;;;10.20;99.90;;;;;;5040474;28;20655;-64
2022/02/23 09:51:35;;;;;;;12.80;3.30;;;10.50;99.90;;;;;;5040908;28;20224;-63
2022/02/23 09:54:03;;;;;;;13.70;3.10;;;10.60;99.90;;;;;;5037516;28;20644;-63
2022/02/23 09:56:32;;;;;;;13.33;3.30;;;10.80;99.90;;;;;;5033147;28;20225;-63
2022/02/23 09:59:02;;;;;;;11.13;3.03;;;10.90;99.90;;;;;;5042293;28;20237;-63
2022/02/23 10:01:32;;;;;;;11.20;2.77;;;10.90;99.90;;;;;;5047724;28;20232;-63
2022/02/23 10:04:02;;;;;;;11.53;3.07;;;10.70;99.90;;;;;;5035894;28;20264;-63
2022/02/23 10:06:32;;;;;;;11.17;2.93;;;10.60;99.90;;;;;;5027545;28;20680;-63
2022/02/23 10:09:01;;;;;;;14.57;3.17;;;10.70;99.90;;;;;;5026138;28;20251;-63
2022/02/23 10:11:30;;;;;;;14.33;3.23;;;10.70;99.90;;;;;;5026253;28;20297;-61
2022/02/23 10:14:01;;;;;;;13.50;3.13;;;11.00;99.90;;;;;;5025789;28;20307;-61
2022/02/23 10:16:34;;;;;;;13.70;2.97;;;10.90;99.90;;;;;;5026923;28;20270;-61
2022/02/23 10:19:07;;;;;;;14.43;3.13;;;11.00;99.90;;;;;;5025945;28;20302;-61
2022/02/23 10:21:46;;;;;;;17.00;3.17;;;11.10;99.90;;;;;;5025737;28;20607;-61
2022/02/23 10:24:23;;;;;;;16.77;3.90;;;11.10;99.90;;;;;;5025351;28;20294;-61
2022/02/23 10:27:00;;;;;;;12.70;2.90;;;11.10;99.90;;;;;;5027380;28;20244;-61
2022/02/23 10:29:34;;;;;;;8.37;2.60;;;11.00;99.90;;;;;;5025695;28;20237;-62
2022/02/23 10:32:09;;;;;;;10.53;2.97;;;11.20;99.90;;;;;;5027109;28;20248;-61
2022/02/23 10:34:39;;;;;;;11.27;2.50;;;11.60;99.90;;;;;;5028733;28;20233;-61
2022/02/23 10:37:15;;;;;;;7.53;2.03;;;11.70;99.90;;;;;;5031030;28;20332;-61
2022/02/23 10:39:45;;;;;;;11.97;2.80;;;11.70;99.90;;;;;;5029737;28;20639;-61
2022/02/23 10:42:16;;;;;;;12.30;3.10;;;11.80;99.90;;;;;;5030183;28;20288;-61
2022/02/23 10:44:46;;;;;;;15.10;2.93;;;11.80;99.90;;;;;;5028347;28;20266;-61
2022/02/23 10:47:23;;;;;;;16.67;2.90;;;11.50;99.90;;;;;;5030704;28;20263;-61
2022/02/23 10:50:06;;;;;;;11.50;2.97;;;11.60;99.90;;;;;;5029751;28;20341;-61
2022/02/23 10:52:36;;;;;;;14.80;2.87;;;11.80;99.90;;;;;;5029050;28;20283;-61
2022/02/23 10:55:23;;;;;;;12.33;2.53;;;11.60;99.90;;;;;;5029548;28;20246;-61
2022/02/23 10:57:55;;;;;;;12.63;2.77;;;11.70;99.90;;;;;;5030650;28;20249;-61
2022/02/23 11:00:25;;;;;;;7.97;2.70;;;11.80;99.90;;;;;;5029654;28;20242;-61
2022/02/23 11:02:55;;;;;;;11.07;2.57;;;12.00;99.90;;;;;;5027350;28;20299;-61
2022/02/23 11:05:25;;;;;;;10.23;2.63;;;12.20;99.90;;;;;;5033355;28;20238;-61
2022/02/23 11:07:55;;;;;;;9.37;2.63;;;12.10;99.90;;;;;;5035760;28;20299;-61
2022/02/23 11:10:25;;;;;;;7.70;2.27;;;12.10;99.90;;;;;;5029102;28;20250;-61
2022/02/23 11:12:56;;;;;;;10.07;2.10;;;12.00;99.90;;;;;;5037208;28;20243;-61
2022/02/23 11:15:27;;;;;;;11.37;2.50;;;12.00;99.90;;;;;;5038772;28;20333;-61
2022/02/23 11:17:57;;;;;;;9.50;2.40;;;11.80;99.90;;;;;;5029140;28;20234;-61
2022/02/23 11:20:29;;;;;;;8.80;2.53;;;11.80;99.90;;;;;;5034443;28;20242;-61
2022/02/23 11:23:00;;;;;;;10.07;2.03;;;12.00;99.90;;;;;;5034764;28;20269;-61
2022/02/23 11:25:31;;;;;;;12.90;2.53;;;12.10;99.90;;;;;;5032660;28;20777;-61
2022/02/23 11:28:05;;;;;;;10.13;2.30;;;12.10;99.90;;;;;;5035211;28;20241;-61
2022/02/23 11:30:33;;;;;;;8.53;2.30;;;12.10;99.90;;;;;;5026894;28;20274;-61
2022/02/23 11:33:04;;;;;;;9.07;2.10;;;11.90;99.90;;;;;;5028455;28;21160;-62
2022/02/23 11:35:53;;;;;;;10.23;2.30;;;11.70;99.90;;;;;;5039413;28;20242;-62
2022/02/23 11:38:28;;;;;;;9.37;2.70;;;11.80;99.90;;;;;;5027104;28;20304;-62
2022/02/23 11:40:59;;;;;;;8.27;2.07;;;11.90;99.90;;;;;;5025983;28;20634;-62
2022/02/23 11:43:32;;;;;;;8.10;1.87;;;11.90;99.90;;;;;;5026572;28;20269;-63
2022/02/23 11:46:05;;;;;;;7.47;1.90;;;12.00;99.90;;;;;;5037408;28;20324;-62
2022/02/23 11:48:49;;;;;;;8.23;2.10;;;12.20;99.90;;;;;;5026150;28;21197;-62
2022/02/23 11:51:26;;;;;;;6.93;1.63;;;12.00;99.90;;;;;;5031274;28;20250;-62
2022/02/23 11:53:55;;;;;;;7.33;2.00;;;11.50;99.90;;;;;;5030418;28;20242;-63
2022/02/23 11:56:23;;;;;;;9.30;1.80;;;11.20;99.90;;;;;;5041535;28;20247;-62
2022/02/23 11:59:11;;;;;;;5.90;1.50;;;11.30;99.90;;;;;;5026537;28;20335;-62
2022/02/23 12:01:47;;;;;;;8.83;1.90;;;11.40;99.90;;;;;;5035026;28;20252;-62
2022/02/23 12:04:18;;;;;;;7.13;1.83;;;11.30;99.90;;;;;;5032124;28;20245;-62
2022/02/23 12:07:11;;;;;;;5.83;1.80;;;11.10;99.90;;;;;;5034397;28;20245;-62
2022/02/23 12:10:08;;;;;;;4.77;1.50;;;11.00;99.90;;;;;;5033232;28;20326;-62
2022/02/23 12:12:37;;;;;;;8.93;1.73;;;10.90;99.90;;;;;;5035490;28;20222;-62
2022/02/23 12:15:07;;;;;;;6.30;1.70;;;10.90;99.90;;;;;;5028020;28;20238;-62
2022/02/23 12:17:53;;;;;;;4.37;1.23;;;11.00;99.90;;;;;;5035080;28;20234;-62
2022/02/23 12:20:52;;;;;;;5.50;1.50;;;11.00;99.90;;;;;;5033339;28;20233;-62
2022/02/23 12:23:37;;;;;;;4.13;1.20;;;11.00;99.90;;;;;;5028988;28;20238;-62
2022/02/23 12:26:29;;;;;;;5.67;1.20;;;11.00;99.90;;;;;;5041100;28;20232;-62
2022/02/23 12:29:01;;;;;;;5.50;1.20;;;11.00;99.90;;;;;;5025310;28;20694;-62
2022/02/23 12:31:32;;;;;;;4.17;1.67;;;11.00;99.90;;;;;;5026415;28;20295;-62
2022/02/23 12:34:05;;;;;;;4.37;1.10;;;11.00;99.90;;;;;;5028392;28;20706;-62
2022/02/23 12:36:52;;;;;;;3.23;1.20;;;11.00;99.90;;;;;;5030625;28;20235;-62
2022/02/23 12:39:23;;;;;;;3.93;1.03;;;11.00;99.90;;;;;;5024743;28;20683;-62
2022/02/23 12:41:53;;;;;;;2.77;1.00;;;11.00;99.90;;;;;;5026796;28;20700;-62
2022/02/23 12:44:22;;;;;;;3.47;1.00;;;10.80;99.90;;;;;;5023742;28;20288;-62
2022/02/23 12:46:53;;;;;;;3.87;1.07;;;10.80;99.90;;;;;;5043975;28;20271;-62
2022/02/23 12:49:28;;;;;;;2.73;1.07;;;10.70;99.90;;;;;;5034209;28;20242;-62
2022/02/23 12:51:57;;;;;;;2.97;0.80;;;10.70;99.90;;;;;;5038084;28;20230;-62
2022/02/23 12:54:28;;;;;;;6.80;1.27;;;10.70;99.90;;;;;;5039812;28;20241;-62
2022/02/23 12:56:57;;;;;;;4.50;1.00;;;10.70;99.90;;;;;;5040545;28;20317;-62
2022/02/23 12:59:29;;;;;;;5.17;1.43;;;10.80;99.90;;;;;;5039746;28;20605;-63
2022/02/23 13:02:00;;;;;;;4.00;1.00;;;10.70;99.90;;;;;;5039048;28;20693;-62